Terminal Aerodrome Forecast
Issued by NWS

Current Version | Previous Version | Text Only | Print | Product List | Glossary Off
Versions: 1 2 3 4 5 6 7 8 9 10 11 12 13 14 15 16

000
FTUS41 KPBZ 221739
TAFMGW
TAF
KMGW 221739Z 2218/2318 02009KT P6SM -RA OVC015
     FM222300 01008KT P6SM -RA OVC035
     FM230200 01008KT P6SM VCSH OVC030
     FM230800 05006KT P6SM VCSH BKN040
     FM231400 06006KT P6SM BKN060=

USA.gov is the U.S. government's official web portal to all federal, state and local government web resources and services.